sensor_id;sensor_type;location;lat;lon;timestamp;temperature;humidity
39103;DHT22;24847;48.218;16.414;2023-02-24T00:00:16;9.70;99.90
39103;DHT22;24847;48.218;16.414;2023-02-24T00:05:34;9.70;99.90
39103;DHT22;24847;48.218;16.414;2023-02-24T00:10:40;9.60;99.90
39103;DHT22;24847;48.218;16.414;2023-02-24T00:15:42;9.40;99.90
39103;DHT22;24847;48.218;16.414;2023-02-24T00:20:45;9.50;99.90
39103;DHT22;24847;48.218;16.414;2023-02-24T00:25:48;9.40;99.90
39103;DHT22;24847;48.218;16.414;2023-02-24T00:30:52;9.40;99.90
39103;DHT22;24847;48.218;16.414;2023-02-24T00:36:03;9.20;99.90
39103;DHT22;24847;48.218;16.414;2023-02-24T00:41:10;9.10;99.90
39103;DHT22;24847;48.218;16.414;2023-02-24T00:46:15;8.90;99.90
39103;DHT22;24847;48.218;16.414;2023-02-24T00:51:22;8.80;99.90
39103;DHT22;24847;48.218;16.414;2023-02-24T00:56:29;8.80;99.90
39103;DHT22;24847;48.218;16.414;2023-02-24T01:01:32;8.70;99.90
39103;DHT22;24847;48.218;16.414;2023-02-24T01:06:35;8.80;99.90
39103;DHT22;24847;48.218;16.414;2023-02-24T01:11:40;8.60;99.90
39103;DHT22;24847;48.218;16.414;2023-02-24T01:17:01;8.60;99.90
39103;DHT22;24847;48.218;16.414;2023-02-24T01:22:11;8.60;99.90
39103;DHT22;24847;48.218;16.414;2023-02-24T01:27:16;8.60;99.90
39103;DHT22;24847;48.218;16.414;2023-02-24T01:32:20;8.40;99.90
39103;DHT22;24847;48.218;16.414;2023-02-24T01:37:23;8.60;99.90
39103;DHT22;24847;48.218;16.414;2023-02-24T01:42:28;8.70;99.90
39103;DHT22;24847;48.218;16.414;2023-02-24T01:47:32;8.70;99.90
39103;DHT22;24847;48.218;16.414;2023-02-24T01:52:36;8.60;99.90
39103;DHT22;24847;48.218;16.414;2023-02-24T01:57:40;8.60;99.90
39103;DHT22;24847;48.218;16.414;2023-02-24T02:02:45;8.40;99.90
39103;DHT22;24847;48.218;16.414;2023-02-24T02:07:50;8.30;99.90
39103;DHT22;24847;48.218;16.414;2023-02-24T02:12:55;8.40;99.90
39103;DHT22;24847;48.218;16.414;2023-02-24T02:18:02;8.10;99.90
39103;DHT22;24847;48.218;16.414;2023-02-24T02:23:24;8.40;99.90
39103;DHT22;24847;48.218;16.414;2023-02-24T02:28:56;8.40;99.90
39103;DHT22;24847;48.218;16.414;2023-02-24T02:34:28;8.30;99.90
39103;DHT22;24847;48.218;16.414;2023-02-24T02:39:47;8.40;99.90
39103;DHT22;24847;48.218;16.414;2023-02-24T02:45:01;8.20;99.90
39103;DHT22;24847;48.218;16.414;2023-02-24T02:50:09;8.40;99.90
39103;DHT22;24847;48.218;16.414;2023-02-24T02:55:23;8.30;99.90
39103;DHT22;24847;48.218;16.414;2023-02-24T03:00:31;8.10;99.90
39103;DHT22;24847;48.218;16.414;2023-02-24T03:05:41;8.10;99.90
39103;DHT22;24847;48.218;16.414;2023-02-24T03:10:47;8.00;99.90
39103;DHT22;24847;48.218;16.414;2023-02-24T03:15:52;7.90;99.90
39103;DHT22;24847;48.218;16.414;2023-02-24T03:20:59;7.90;99.90
39103;DHT22;24847;48.218;16.414;2023-02-24T03:26:11;8.10;99.90
39103;DHT22;24847;48.218;16.414;2023-02-24T03:31:21;8.00;99.90
39103;DHT22;24847;48.218;16.414;2023-02-24T03:36:31;8.20;99.90
39103;DHT22;24847;48.218;16.414;2023-02-24T03:41:38;8.10;99.90
39103;DHT22;24847;48.218;16.414;2023-02-24T03:46:45;7.80;99.90
39103;DHT22;24847;48.218;16.414;2023-02-24T03:51:57;7.70;99.90
39103;DHT22;24847;48.218;16.414;2023-02-24T03:57:16;8.00;99.90
39103;DHT22;24847;48.218;16.414;2023-02-24T04:02:28;8.20;99.90
39103;DHT22;24847;48.218;16.414;2023-02-24T04:07:39;8.10;99.90
39103;DHT22;24847;48.218;16.414;2023-02-24T04:12:56;8.10;99.90
39103;DHT22;24847;48.218;16.414;2023-02-24T04:18:06;8.20;99.90
39103;DHT22;24847;48.218;16.414;2023-02-24T04:23:14;8.10;99.90
39103;DHT22;24847;48.218;16.414;2023-02-24T04:28:20;8.10;99.90
39103;DHT22;24847;48.218;16.414;2023-02-24T04:33:24;8.10;99.90
39103;DHT22;24847;48.218;16.414;2023-02-24T04:38:30;8.30;99.90
39103;DHT22;24847;48.218;16.414;2023-02-24T04:43:35;8.40;99.90
39103;DHT22;24847;48.218;16.414;2023-02-24T04:48:38;8.00;99.90
39103;DHT22;24847;48.218;16.414;2023-02-24T04:53:41;7.80;99.90
39103;DHT22;24847;48.218;16.414;2023-02-24T04:58:44;7.80;99.90
39103;DHT22;24847;48.218;16.414;2023-02-24T05:03:46;7.90;99.90
39103;DHT22;24847;48.218;16.414;2023-02-24T05:08:50;7.70;99.90
39103;DHT22;24847;48.218;16.414;2023-02-24T05:13:52;7.90;99.90
39103;DHT22;24847;48.218;16.414;2023-02-24T05:18:55;8.00;99.90
39103;DHT22;24847;48.218;16.414;2023-02-24T05:24:12;8.00;99.90
39103;DHT22;24847;48.218;16.414;2023-02-24T05:29:16;7.80;99.90
39103;DHT22;24847;48.218;16.414;2023-02-24T05:34:19;8.00;99.90
39103;DHT22;24847;48.218;16.414;2023-02-24T05:39:25;8.10;99.90
39103;DHT22;24847;48.218;16.414;2023-02-24T05:44:28;7.90;99.90
39103;DHT22;24847;48.218;16.414;2023-02-24T05:49:33;8.00;99.90
39103;DHT22;24847;48.218;16.414;2023-02-24T05:54:39;8.20;99.90
39103;DHT22;24847;48.218;16.414;2023-02-24T05:59:42;8.30;99.90
39103;DHT22;24847;48.218;16.414;2023-02-24T06:04:45;8.30;99.90
39103;DHT22;24847;48.218;16.414;2023-02-24T06:09:53;8.30;99.90
39103;DHT22;24847;48.218;16.414;2023-02-24T06:14:57;8.30;99.90
39103;DHT22;24847;48.218;16.414;2023-02-24T06:19:59;8.40;99.90
39103;DHT22;24847;48.218;16.414;2023-02-24T06:25:03;8.50;99.90
39103;DHT22;24847;48.218;16.414;2023-02-24T06:30:07;8.60;99.90
39103;DHT22;24847;48.218;16.414;2023-02-24T06:35:11;8.70;99.90
39103;DHT22;24847;48.218;16.414;2023-02-24T06:40:14;8.10;99.90
39103;DHT22;24847;48.218;16.414;2023-02-24T06:45:19;8.30;99.90
39103;DHT22;24847;48.218;16.414;2023-02-24T06:50:22;8.40;99.90
39103;DHT22;24847;48.218;16.414;2023-02-24T06:55:29;8.40;99.90
39103;DHT22;24847;48.218;16.414;2023-02-24T07:00:35;8.50;99.90
39103;DHT22;24847;48.218;16.414;2023-02-24T07:05:38;8.50;99.90
39103;DHT22;24847;48.218;16.414;2023-02-24T07:10:41;8.20;99.90
39103;DHT22;24847;48.218;16.414;2023-02-24T07:15:43;8.40;99.90
39103;DHT22;24847;48.218;16.414;2023-02-24T07:20:49;8.70;99.90
39103;DHT22;24847;48.218;16.414;2023-02-24T07:25:52;9.00;99.90
39103;DHT22;24847;48.218;16.414;2023-02-24T07:30:58;9.10;99.90
39103;DHT22;24847;48.218;16.414;2023-02-24T07:36:01;9.20;99.90
39103;DHT22;24847;48.218;16.414;2023-02-24T07:41:12;9.40;99.90
39103;DHT22;24847;48.218;16.414;2023-02-24T07:46:16;9.50;99.90
39103;DHT22;24847;48.218;16.414;2023-02-24T07:51:21;9.60;99.90
39103;DHT22;24847;48.218;16.414;2023-02-24T07:56:27;9.80;99.90
39103;DHT22;24847;48.218;16.414;2023-02-24T08:01:33;10.20;99.90
39103;DHT22;24847;48.218;16.414;2023-02-24T08:06:40;10.50;99.90
39103;DHT22;24847;48.218;16.414;2023-02-24T08:11:46;10.70;99.90
39103;DHT22;24847;48.218;16.414;2023-02-24T08:16:53;10.80;99.90
39103;DHT22;24847;48.218;16.414;2023-02-24T08:22:00;11.10;99.90
39103;DHT22;24847;48.218;16.414;2023-02-24T08:27:23;11.30;99.90
39103;DHT22;24847;48.218;16.414;2023-02-24T08:32:31;11.40;99.90
39103;DHT22;24847;48.218;16.414;2023-02-24T08:37:36;11.50;99.90
39103;DHT22;24847;48.218;16.414;2023-02-24T08:42:41;11.40;99.90
39103;DHT22;24847;48.218;16.414;2023-02-24T08:47:43;11.60;99.90
39103;DHT22;24847;48.218;16.414;2023-02-24T08:52:48;11.80;99.90
39103;DHT22;24847;48.218;16.414;2023-02-24T08:57:52;11.90;99.90
39103;DHT22;24847;48.218;16.414;2023-02-24T09:02:55;11.90;99.90
39103;DHT22;24847;48.218;16.414;2023-02-24T09:07:58;11.90;99.90
39103;DHT22;24847;48.218;16.414;2023-02-24T09:13:02;11.90;99.90
39103;DHT22;24847;48.218;16.414;2023-02-24T09:18:08;11.80;99.90
39103;DHT22;24847;48.218;16.414;2023-02-24T09:23:13;11.90;99.90
39103;DHT22;24847;48.218;16.414;2023-02-24T09:28:21;12.20;99.90
39103;DHT22;24847;48.218;16.414;2023-02-24T09:33:27;12.40;99.90
39103;DHT22;24847;48.218;16.414;2023-02-24T09:38:40;13.00;99.90
39103;DHT22;24847;48.218;16.414;2023-02-24T09:44:04;12.90;99.90
39103;DHT22;24847;48.218;16.414;2023-02-24T09:49:14;13.10;99.90
39103;DHT22;24847;48.218;16.414;2023-02-24T09:54:19;13.40;99.90
39103;DHT22;24847;48.218;16.414;2023-02-24T09:59:30;14.70;99.90
39103;DHT22;24847;48.218;16.414;2023-02-24T10:04:51;14.20;99.90
39103;DHT22;24847;48.218;16.414;2023-02-24T10:09:58;13.80;99.90
39103;DHT22;24847;48.218;16.414;2023-02-24T10:15:25;13.60;99.90
39103;DHT22;24847;48.218;16.414;2023-02-24T10:21:10;13.70;99.90
39103;DHT22;24847;48.218;16.414;2023-02-24T10:26:25;13.80;99.90
39103;DHT22;24847;48.218;16.414;2023-02-24T10:31:47;14.10;99.90
39103;DHT22;24847;48.218;16.414;2023-02-24T10:36:57;13.90;99.90
39103;DHT22;24847;48.218;16.414;2023-02-24T10:42:03;13.70;99.90
39103;DHT22;24847;48.218;16.414;2023-02-24T10:47:30;14.00;99.90
39103;DHT22;24847;48.218;16.414;2023-02-24T10:52:33;13.90;99.90
39103;DHT22;24847;48.218;16.414;2023-02-24T10:57:50;13.90;99.90
39103;DHT22;24847;48.218;16.414;2023-02-24T11:03:06;14.10;99.90
39103;DHT22;24847;48.218;16.414;2023-02-24T11:08:15;14.50;99.90
39103;DHT22;24847;48.218;16.414;2023-02-24T11:13:47;14.20;99.90
39103;DHT22;24847;48.218;16.414;2023-02-24T11:19:10;13.90;99.90
39103;DHT22;24847;48.218;16.414;2023-02-24T11:24:16;14.00;99.90
39103;DHT22;24847;48.218;16.414;2023-02-24T11:29:36;13.90;99.90
39103;DHT22;24847;48.218;16.414;2023-02-24T11:34:51;13.80;99.90
39103;DHT22;24847;48.218;16.414;2023-02-24T11:40:00;13.90;99.90
39103;DHT22;24847;48.218;16.414;2023-02-24T11:45:10;14.10;99.90
39103;DHT22;24847;48.218;16.414;2023-02-24T11:50:31;14.10;99.90
39103;DHT22;24847;48.218;16.414;2023-02-24T11:55:41;13.90;99.90
39103;DHT22;24847;48.218;16.414;2023-02-24T12:00:54;14.00;99.90
39103;DHT22;24847;48.218;16.414;2023-02-24T12:06:10;14.10;99.90
39103;DHT22;24847;48.218;16.414;2023-02-24T12:11:19;14.00;99.90
39103;DHT22;24847;48.218;16.414;2023-02-24T12:16:27;14.20;99.90
39103;DHT22;24847;48.218;16.414;2023-02-24T12:21:37;14.30;99.90
39103;DHT22;24847;48.218;16.414;2023-02-24T12:26:51;14.30;99.90
39103;DHT22;24847;48.218;16.414;2023-02-24T12:32:08;14.40;99.90
39103;DHT22;24847;48.218;16.414;2023-02-24T12:37:29;14.40;99.90
39103;DHT22;24847;48.218;16.414;2023-02-24T12:42:41;14.40;99.90
39103;DHT22;24847;48.218;16.414;2023-02-24T12:47:57;14.40;99.90
39103;DHT22;24847;48.218;16.414;2023-02-24T12:53:16;14.70;99.90
39103;DHT22;24847;48.218;16.414;2023-02-24T12:58:24;15.20;99.90
39103;DHT22;24847;48.218;16.414;2023-02-24T13:03:38;14.90;99.90
39103;DHT22;24847;48.218;16.414;2023-02-24T13:08:59;14.80;99.90
39103;DHT22;24847;48.218;16.414;2023-02-24T13:14:11;15.00;99.90
39103;DHT22;24847;48.218;16.414;2023-02-24T13:19:19;14.80;99.90
39103;DHT22;24847;48.218;16.414;2023-02-24T13:24:24;14.60;99.90
39103;DHT22;24847;48.218;16.414;2023-02-24T13:29:27;14.30;99.90
39103;DHT22;24847;48.218;16.414;2023-02-24T13:34:31;14.10;99.90
39103;DHT22;24847;48.218;16.414;2023-02-24T13:39:37;14.00;99.90
39103;DHT22;24847;48.218;16.414;2023-02-24T13:44:47;14.00;99.90
39103;DHT22;24847;48.218;16.414;2023-02-24T13:49:58;13.90;99.90
39103;DHT22;24847;48.218;16.414;2023-02-24T13:55:28;13.90;99.90
39103;DHT22;24847;48.218;16.414;2023-02-24T14:00:50;13.90;99.90
39103;DHT22;24847;48.218;16.414;2023-02-24T14:05:59;14.00;99.90
39103;DHT22;24847;48.218;16.414;2023-02-24T14:11:07;14.00;99.90
39103;DHT22;24847;48.218;16.414;2023-02-24T14:16:16;14.00;99.90
39103;DHT22;24847;48.218;16.414;2023-02-24T14:21:22;14.00;99.90
39103;DHT22;24847;48.218;16.414;2023-02-24T14:26:28;14.10;99.90
39103;DHT22;24847;48.218;16.414;2023-02-24T14:31:46;13.70;99.90
39103;DHT22;24847;48.218;16.414;2023-02-24T14:36:52;13.90;99.90
39103;DHT22;24847;48.218;16.414;2023-02-24T14:42:10;13.90;99.90
39103;DHT22;24847;48.218;16.414;2023-02-24T14:47:16;13.50;99.90
39103;DHT22;24847;48.218;16.414;2023-02-24T14:52:25;13.60;99.90
39103;DHT22;24847;48.218;16.414;2023-02-24T14:57:35;13.60;99.90
39103;DHT22;24847;48.218;16.414;2023-02-24T15:02:45;13.40;99.90
39103;DHT22;24847;48.218;16.414;2023-02-24T15:07:50;13.30;99.90
39103;DHT22;24847;48.218;16.414;2023-02-24T15:12:57;13.40;99.90
39103;DHT22;24847;48.218;16.414;2023-02-24T15:18:02;13.40;99.90
39103;DHT22;24847;48.218;16.414;2023-02-24T15:23:25;13.60;99.90
39103;DHT22;24847;48.218;16.414;2023-02-24T15:28:34;13.20;99.90
39103;DHT22;24847;48.218;16.414;2023-02-24T15:33:39;13.10;99.90
39103;DHT22;24847;48.218;16.414;2023-02-24T15:38:42;13.00;99.90
39103;DHT22;24847;48.218;16.414;2023-02-24T15:43:48;13.00;99.90
39103;DHT22;24847;48.218;16.414;2023-02-24T15:48:53;13.00;99.90
39103;DHT22;24847;48.218;16.414;2023-02-24T15:53:58;13.00;99.90
39103;DHT22;24847;48.218;16.414;2023-02-24T15:59:03;13.20;99.90
39103;DHT22;24847;48.218;16.414;2023-02-24T16:04:05;13.10;99.90
39103;DHT22;24847;48.218;16.414;2023-02-24T16:09:11;12.90;99.90
39103;DHT22;24847;48.218;16.414;2023-02-24T16:14:17;13.00;99.90
39103;DHT22;24847;48.218;16.414;2023-02-24T16:19:19;13.00;99.90
39103;DHT22;24847;48.218;16.414;2023-02-24T16:24:25;13.00;99.90
39103;DHT22;24847;48.218;16.414;2023-02-24T16:29:29;13.10;99.90
39103;DHT22;24847;48.218;16.414;2023-02-24T16:34:31;13.10;99.90
39103;DHT22;24847;48.218;16.414;2023-02-24T16:39:34;13.10;99.90
39103;DHT22;24847;48.218;16.414;2023-02-24T16:44:38;13.20;99.90
39103;DHT22;24847;48.218;16.414;2023-02-24T16:49:40;13.10;99.90
39103;DHT22;24847;48.218;16.414;2023-02-24T16:54:43;12.90;99.90
39103;DHT22;24847;48.218;16.414;2023-02-24T16:59:47;12.90;99.90
39103;DHT22;24847;48.218;16.414;2023-02-24T17:04:49;12.90;99.90
39103;DHT22;24847;48.218;16.414;2023-02-24T17:09:53;13.00;99.90
39103;DHT22;24847;48.218;16.414;2023-02-24T17:14:56;13.00;99.90
39103;DHT22;24847;48.218;16.414;2023-02-24T17:20:00;13.00;99.90
39103;DHT22;24847;48.218;16.414;2023-02-24T17:25:04;12.90;99.90
39103;DHT22;24847;48.218;16.414;2023-02-24T17:30:11;13.00;99.90
39103;DHT22;24847;48.218;16.414;2023-02-24T17:35:15;12.90;99.90
39103;DHT22;24847;48.218;16.414;2023-02-24T17:40:20;12.60;99.90
39103;DHT22;24847;48.218;16.414;2023-02-24T17:45:28;12.70;99.90
39103;DHT22;24847;48.218;16.414;2023-02-24T17:50:30;12.70;99.90
39103;DHT22;24847;48.218;16.414;2023-02-24T17:55:33;12.60;99.90
39103;DHT22;24847;48.218;16.414;2023-02-24T18:00:38;12.60;99.90
39103;DHT22;24847;48.218;16.414;2023-02-24T18:05:42;12.40;99.90
39103;DHT22;24847;48.218;16.414;2023-02-24T18:10:46;12.30;99.90
39103;DHT22;24847;48.218;16.414;2023-02-24T18:15:51;12.30;99.90
39103;DHT22;24847;48.218;16.414;2023-02-24T18:20:59;12.30;99.90
39103;DHT22;24847;48.218;16.414;2023-02-24T18:26:08;12.30;99.90
39103;DHT22;24847;48.218;16.414;2023-02-24T18:31:16;12.30;99.90
39103;DHT22;24847;48.218;16.414;2023-02-24T18:36:29;12.20;99.90
39103;DHT22;24847;48.218;16.414;2023-02-24T18:41:33;12.00;99.90
39103;DHT22;24847;48.218;16.414;2023-02-24T18:46:39;12.20;99.90
39103;DHT22;24847;48.218;16.414;2023-02-24T18:51:43;12.10;99.90
39103;DHT22;24847;48.218;16.414;2023-02-24T18:56:49;11.90;99.90
39103;DHT22;24847;48.218;16.414;2023-02-24T19:01:54;12.00;99.90
39103;DHT22;24847;48.218;16.414;2023-02-24T19:06:58;11.90;99.90
39103;DHT22;24847;48.218;16.414;2023-02-24T19:12:01;11.90;99.90
39103;DHT22;24847;48.218;16.414;2023-02-24T19:17:05;12.10;99.90
39103;DHT22;24847;48.218;16.414;2023-02-24T19:22:09;12.10;99.90
39103;DHT22;24847;48.218;16.414;2023-02-24T19:27:15;12.10;99.90
39103;DHT22;24847;48.218;16.414;2023-02-24T19:32:20;11.90;99.90
39103;DHT22;24847;48.218;16.414;2023-02-24T19:37:24;12.00;99.90
39103;DHT22;24847;48.218;16.414;2023-02-24T19:42:28;12.00;99.90
39103;DHT22;24847;48.218;16.414;2023-02-24T19:47:32;11.90;99.90
39103;DHT22;24847;48.218;16.414;2023-02-24T19:52:35;11.80;99.90
39103;DHT22;24847;48.218;16.414;2023-02-24T19:57:39;11.70;99.90
39103;DHT22;24847;48.218;16.414;2023-02-24T20:02:44;11.40;99.90
39103;DHT22;24847;48.218;16.414;2023-02-24T20:07:47;11.50;99.90
39103;DHT22;24847;48.218;16.414;2023-02-24T20:12:50;11.50;99.90
39103;DHT22;24847;48.218;16.414;2023-02-24T20:17:57;11.40;99.90
39103;DHT22;24847;48.218;16.414;2023-02-24T20:23:03;11.30;99.90
39103;DHT22;24847;48.218;16.414;2023-02-24T20:28:07;11.10;99.90
39103;DHT22;24847;48.218;16.414;2023-02-24T20:33:12;11.00;99.90
39103;DHT22;24847;48.218;16.414;2023-02-24T20:38:16;11.10;99.90
39103;DHT22;24847;48.218;16.414;2023-02-24T20:43:20;11.10;99.90
39103;DHT22;24847;48.218;16.414;2023-02-24T20:48:25;11.00;99.90
39103;DHT22;24847;48.218;16.414;2023-02-24T20:53:30;10.90;99.90
39103;DHT22;24847;48.218;16.414;2023-02-24T20:58:34;10.90;99.90
39103;DHT22;24847;48.218;16.414;2023-02-24T21:03:40;10.90;99.90
39103;DHT22;24847;48.218;16.414;2023-02-24T21:08:43;11.00;99.90
39103;DHT22;24847;48.218;16.414;2023-02-24T21:13:48;11.10;99.90
39103;DHT22;24847;48.218;16.414;2023-02-24T21:18:54;10.90;99.90
39103;DHT22;24847;48.218;16.414;2023-02-24T21:23:58;10.90;99.90
39103;DHT22;24847;48.218;16.414;2023-02-24T21:29:01;10.70;99.90
39103;DHT22;24847;48.218;16.414;2023-02-24T21:34:05;10.70;99.90
39103;DHT22;24847;48.218;16.414;2023-02-24T21:39:11;10.70;99.90
39103;DHT22;24847;48.218;16.414;2023-02-24T21:44:14;10.70;99.90
39103;DHT22;24847;48.218;16.414;2023-02-24T21:49:17;10.90;99.90
39103;DHT22;24847;48.218;16.414;2023-02-24T21:54:20;10.70;99.90
39103;DHT22;24847;48.218;16.414;2023-02-24T21:59:23;10.80;99.90
39103;DHT22;24847;48.218;16.414;2023-02-24T22:04:28;10.80;99.90
39103;DHT22;24847;48.218;16.414;2023-02-24T22:09:30;10.60;99.90
39103;DHT22;24847;48.218;16.414;2023-02-24T22:14:33;10.50;99.90
39103;DHT22;24847;48.218;16.414;2023-02-24T22:19:36;10.60;99.90
39103;DHT22;24847;48.218;16.414;2023-02-24T22:24:39;10.70;99.90
39103;DHT22;24847;48.218;16.414;2023-02-24T22:29:45;10.60;99.90
39103;DHT22;24847;48.218;16.414;2023-02-24T22:34:49;10.70;99.90
39103;DHT22;24847;48.218;16.414;2023-02-24T22:39:51;10.40;99.90
39103;DHT22;24847;48.218;16.414;2023-02-24T22:44:53;10.40;99.90
39103;DHT22;24847;48.218;16.414;2023-02-24T22:49:57;10.50;99.90
39103;DHT22;24847;48.218;16.414;2023-02-24T22:54:59;10.40;99.90
39103;DHT22;24847;48.218;16.414;2023-02-24T23:00:03;10.40;99.90
39103;DHT22;24847;48.218;16.414;2023-02-24T23:05:10;10.40;99.90
39103;DHT22;24847;48.218;16.414;2023-02-24T23:10:13;10.40;99.90
39103;DHT22;24847;48.218;16.414;2023-02-24T23:15:15;10.40;99.90
39103;DHT22;24847;48.218;16.414;2023-02-24T23:20:19;10.50;99.90
39103;DHT22;24847;48.218;16.414;2023-02-24T23:25:21;10.60;99.90
39103;DHT22;24847;48.218;16.414;2023-02-24T23:30:23;10.50;99.90
39103;DHT22;24847;48.218;16.414;2023-02-24T23:35:27;10.70;99.90
39103;DHT22;24847;48.218;16.414;2023-02-24T23:40:29;10.30;99.90
39103;DHT22;24847;48.218;16.414;2023-02-24T23:45:35;10.50;99.90
39103;DHT22;24847;48.218;16.414;2023-02-24T23:50:40;10.40;99.90
39103;DHT22;24847;48.218;16.414;2023-02-24T23:55:45;10.40;99.90
